sensor_id;sensor_type;location;lat;lon;timestamp;pressure;altitude;pressure_sealevel;temperature;humidity
10992;BME280;5549;47.028;15.514;2023-02-21T00:00:07;96657.34;;;10.77;48.47
10992;BME280;5549;47.028;15.514;2023-02-21T00:02:52;96660.75;;;10.68;48.83
10992;BME280;5549;47.028;15.514;2023-02-21T00:05:37;96651.47;;;10.64;48.79
10992;BME280;5549;47.028;15.514;2023-02-21T00:08:26;96651.13;;;10.57;49.25
10992;BME280;5549;47.028;15.514;2023-02-21T00:11:10;96657.72;;;10.51;49.12
10992;BME280;5549;47.028;15.514;2023-02-21T00:13:58;96658.22;;;10.45;49.19
10992;BME280;5549;47.028;15.514;2023-02-21T00:16:45;96646.31;;;10.41;48.63
10992;BME280;5549;47.028;15.514;2023-02-21T00:19:31;96645.56;;;10.39;48.95
10992;BME280;5549;47.028;15.514;2023-02-21T00:22:18;96648.31;;;10.38;48.50
10992;BME280;5549;47.028;15.514;2023-02-21T00:25:05;96649.16;;;10.38;48.64
10992;BME280;5549;47.028;15.514;2023-02-21T00:27:53;96650.34;;;10.34;49.28
10992;BME280;5549;47.028;15.514;2023-02-21T00:30:38;96654.78;;;10.34;49.33
10992;BME280;5549;47.028;15.514;2023-02-21T00:33:25;96643.44;;;10.33;49.34
10992;BME280;5549;47.028;15.514;2023-02-21T00:36:16;96647.03;;;10.32;49.39
10992;BME280;5549;47.028;15.514;2023-02-21T00:39:01;96646.94;;;10.22;50.78
10992;BME280;5549;47.028;15.514;2023-02-21T00:41:47;96635.25;;;10.15;50.70
10992;BME280;5549;47.028;15.514;2023-02-21T00:44:32;96645.03;;;10.13;50.41
10992;BME280;5549;47.028;15.514;2023-02-21T00:47:17;96639.56;;;10.05;51.65
10992;BME280;5549;47.028;15.514;2023-02-21T00:50:02;96630.66;;;9.96;51.13
10992;BME280;5549;47.028;15.514;2023-02-21T00:52:50;96625.41;;;9.96;51.31
10992;BME280;5549;47.028;15.514;2023-02-21T00:55:35;96634.47;;;9.92;50.82
10992;BME280;5549;47.028;15.514;2023-02-21T00:58:24;96634.47;;;9.92;50.96
10992;BME280;5549;47.028;15.514;2023-02-21T01:01:09;96632.03;;;9.69;51.95
10992;BME280;5549;47.028;15.514;2023-02-21T01:03:54;96639.31;;;9.31;53.46
10992;BME280;5549;47.028;15.514;2023-02-21T01:06:39;96637.88;;;9.27;52.59
10992;BME280;5549;47.028;15.514;2023-02-21T01:09:23;96634.91;;;9.21;53.52
10992;BME280;5549;47.028;15.514;2023-02-21T01:12:09;96632.06;;;9.13;53.72
10992;BME280;5549;47.028;15.514;2023-02-21T01:14:57;96634.44;;;9.16;54.04
10992;BME280;5549;47.028;15.514;2023-02-21T01:17:42;96635.75;;;9.10;53.63
10992;BME280;5549;47.028;15.514;2023-02-21T01:20:27;96627.53;;;9.15;53.35
10992;BME280;5549;47.028;15.514;2023-02-21T01:23:15;96621.44;;;9.14;53.52
10992;BME280;5549;47.028;15.514;2023-02-21T01:26:00;96621.44;;;9.14;53.40
10992;BME280;5549;47.028;15.514;2023-02-21T01:28:48;96633.22;;;8.97;53.96
10992;BME280;5549;47.028;15.514;2023-02-21T01:31:34;96627.97;;;8.86;53.97
10992;BME280;5549;47.028;15.514;2023-02-21T01:34:21;96627.75;;;8.89;53.92
10992;BME280;5549;47.028;15.514;2023-02-21T01:37:09;96613.31;;;8.84;53.75
10992;BME280;5549;47.028;15.514;2023-02-21T01:39:56;96624.75;;;8.83;54.23
10992;BME280;5549;47.028;15.514;2023-02-21T01:42:41;96614.28;;;8.83;54.25
10992;BME280;5549;47.028;15.514;2023-02-21T01:45:46;96600.84;;;8.87;53.57
10992;BME280;5549;47.028;15.514;2023-02-21T01:48:33;96604.38;;;8.75;54.17
10992;BME280;5549;47.028;15.514;2023-02-21T01:51:23;96602.13;;;8.82;53.46
10992;BME280;5549;47.028;15.514;2023-02-21T01:54:12;96599.53;;;8.82;53.69
10992;BME280;5549;47.028;15.514;2023-02-21T01:57:02;96603.81;;;8.83;53.39
10992;BME280;5549;47.028;15.514;2023-02-21T01:59:49;96608.09;;;8.84;53.63
10992;BME280;5549;47.028;15.514;2023-02-21T02:02:41;96587.84;;;8.75;53.75
10992;BME280;5549;47.028;15.514;2023-02-21T02:05:35;96590.22;;;8.78;53.63
10992;BME280;5549;47.028;15.514;2023-02-21T02:08:28;96593.03;;;8.63;53.71
10992;BME280;5549;47.028;15.514;2023-02-21T02:11:36;96594.03;;;8.74;52.95
10992;BME280;5549;47.028;15.514;2023-02-21T02:17:41;96587.00;;;8.74;52.08
10992;BME280;5549;47.028;15.514;2023-02-21T02:24:36;96576.19;;;8.67;51.79
10992;BME280;5549;47.028;15.514;2023-02-21T02:27:44;96583.91;;;8.69;51.57
10992;BME280;5549;47.028;15.514;2023-02-21T02:37:16;96588.81;;;8.85;49.90
10992;BME280;5549;47.028;15.514;2023-02-21T02:39:55;96591.78;;;8.80;50.17
10992;BME280;5549;47.028;15.514;2023-02-21T02:42:54;96588.81;;;8.85;50.28
10992;BME280;5549;47.028;15.514;2023-02-21T02:45:32;96589.94;;;8.58;50.14
10992;BME280;5549;47.028;15.514;2023-02-21T02:48:05;96588.09;;;8.72;50.00
10992;BME280;5549;47.028;15.514;2023-02-21T02:50:37;96589.28;;;8.79;49.69
10992;BME280;5549;47.028;15.514;2023-02-21T02:53:09;96587.97;;;8.84;49.76
10992;BME280;5549;47.028;15.514;2023-02-21T02:55:42;96592.16;;;8.87;50.22
10992;BME280;5549;47.028;15.514;2023-02-21T02:58:15;96591.66;;;8.82;50.75
10992;BME280;5549;47.028;15.514;2023-02-21T03:00:55;96582.16;;;8.81;50.56
10992;BME280;5549;47.028;15.514;2023-02-21T03:03:49;96580.25;;;8.83;50.03
10992;BME280;5549;47.028;15.514;2023-02-21T03:06:32;96582.25;;;8.79;49.82
10992;BME280;5549;47.028;15.514;2023-02-21T03:09:12;96571.66;;;8.81;49.50
10992;BME280;5549;47.028;15.514;2023-02-21T03:11:58;96582.84;;;8.83;49.31
10992;BME280;5549;47.028;15.514;2023-02-21T03:14:32;96580.00;;;8.86;49.13
10992;BME280;5549;47.028;15.514;2023-02-21T03:17:07;96580.25;;;8.83;49.29
10992;BME280;5549;47.028;15.514;2023-02-21T03:19:40;96582.72;;;8.73;49.25
10992;BME280;5549;47.028;15.514;2023-02-21T03:22:12;96584.88;;;8.79;49.24
10992;BME280;5549;47.028;15.514;2023-02-21T03:24:45;96571.91;;;8.78;49.29
10992;BME280;5549;47.028;15.514;2023-02-21T03:27:17;96574.53;;;8.78;49.52
10992;BME280;5549;47.028;15.514;2023-02-21T03:29:46;96573.81;;;8.76;49.77
10992;BME280;5549;47.028;15.514;2023-02-21T03:32:19;96566.19;;;8.84;49.23
10992;BME280;5549;47.028;15.514;2023-02-21T03:34:47;96562.63;;;8.85;49.23
10992;BME280;5549;47.028;15.514;2023-02-21T03:37:21;96575.00;;;8.83;49.17
10992;BME280;5549;47.028;15.514;2023-02-21T03:39:58;96576.69;;;8.95;49.31
10992;BME280;5549;47.028;15.514;2023-02-21T03:42:26;96569.41;;;8.98;49.00
10992;BME280;5549;47.028;15.514;2023-02-21T03:44:53;96559.28;;;9.05;48.69
10992;BME280;5549;47.028;15.514;2023-02-21T03:47:21;96560.97;;;9.06;48.63
10992;BME280;5549;47.028;15.514;2023-02-21T03:49:49;96560.72;;;9.09;48.37
10992;BME280;5549;47.028;15.514;2023-02-21T03:52:18;96554.41;;;9.12;48.60
10992;BME280;5549;47.028;15.514;2023-02-21T03:54:46;96551.78;;;9.12;48.30
10992;BME280;5549;47.028;15.514;2023-02-21T03:57:17;96561.91;;;9.16;48.01
10992;BME280;5549;47.028;15.514;2023-02-21T03:59:45;96557.97;;;9.22;47.95
10992;BME280;5549;47.028;15.514;2023-02-21T04:02:12;96550.00;;;9.23;48.13
10992;BME280;5549;47.028;15.514;2023-02-21T04:04:40;96549.75;;;9.26;48.13
10992;BME280;5549;47.028;15.514;2023-02-21T04:07:09;96554.28;;;9.24;47.77
10992;BME280;5549;47.028;15.514;2023-02-21T04:09:37;96556.78;;;9.26;48.02
10992;BME280;5549;47.028;15.514;2023-02-21T04:12:05;96548.69;;;9.18;49.00
10992;BME280;5549;47.028;15.514;2023-02-21T04:14:34;96542.97;;;9.24;48.44
10992;BME280;5549;47.028;15.514;2023-02-21T04:17:04;96549.75;;;9.15;48.65
10992;BME280;5549;47.028;15.514;2023-02-21T04:19:34;96541.19;;;9.13;48.77
10992;BME280;5549;47.028;15.514;2023-02-21T04:22:02;96553.56;;;9.11;49.13
10992;BME280;5549;47.028;15.514;2023-02-21T04:24:29;96555.25;;;9.12;49.13
10992;BME280;5549;47.028;15.514;2023-02-21T04:26:59;96542.13;;;9.23;48.43
10992;BME280;5549;47.028;15.514;2023-02-21T04:29:29;96539.03;;;9.18;48.75
10992;BME280;5549;47.028;15.514;2023-02-21T04:31:58;96545.22;;;9.17;48.55
10992;BME280;5549;47.028;15.514;2023-02-21T04:34:28;96548.81;;;9.16;48.77
10992;BME280;5549;47.028;15.514;2023-02-21T04:36:58;96547.16;;;9.15;49.02
10992;BME280;5549;47.028;15.514;2023-02-21T04:39:25;96545.59;;;9.02;49.21
10992;BME280;5549;47.028;15.514;2023-02-21T04:41:55;96551.56;;;9.04;49.16
10992;BME280;5549;47.028;15.514;2023-02-21T04:44:22;96553.56;;;8.89;49.79
10992;BME280;5549;47.028;15.514;2023-02-21T04:46:50;96550.84;;;8.90;49.62
10992;BME280;5549;47.028;15.514;2023-02-21T04:49:19;96555.25;;;8.79;50.15
10992;BME280;5549;47.028;15.514;2023-02-21T04:51:47;96553.47;;;8.79;50.08
10992;BME280;5549;47.028;15.514;2023-02-21T04:54:17;96551.66;;;8.80;50.23
10992;BME280;5549;47.028;15.514;2023-02-21T04:56:45;96538.94;;;8.75;50.14
10992;BME280;5549;47.028;15.514;2023-02-21T04:59:12;96540.44;;;8.66;50.16
10992;BME280;5549;47.028;15.514;2023-02-21T05:01:42;96539.72;;;8.64;50.36
10992;BME280;5549;47.028;15.514;2023-02-21T05:04:10;96547.81;;;8.61;51.21
10992;BME280;5549;47.028;15.514;2023-02-21T05:06:39;96537.69;;;8.57;51.25
10992;BME280;5549;47.028;15.514;2023-02-21T05:09:06;96539.22;;;8.48;50.81
10992;BME280;5549;47.028;15.514;2023-02-21T05:11:34;96534.00;;;8.48;50.28
10992;BME280;5549;47.028;15.514;2023-02-21T05:14:02;96538.75;;;8.43;52.34
10992;BME280;5549;47.028;15.514;2023-02-21T05:16:31;96523.75;;;8.45;51.36
10992;BME280;5549;47.028;15.514;2023-02-21T05:19:00;96525.53;;;8.45;49.38
10992;BME280;5549;47.028;15.514;2023-02-21T05:21:27;96527.56;;;8.41;49.86
10992;BME280;5549;47.028;15.514;2023-02-21T05:23:56;96525.06;;;8.40;49.49
10992;BME280;5549;47.028;15.514;2023-02-21T05:26:32;96533.25;;;8.35;47.78
10992;BME280;5549;47.028;15.514;2023-02-21T05:29:00;96534.09;;;8.35;48.53
10992;BME280;5549;47.028;15.514;2023-02-21T05:31:28;96530.97;;;8.30;49.15
10992;BME280;5549;47.028;15.514;2023-02-21T05:33:56;96531.06;;;8.29;48.67
10992;BME280;5549;47.028;15.514;2023-02-21T05:36:23;96534.41;;;8.31;48.14
10992;BME280;5549;47.028;15.514;2023-02-21T05:38:53;96531.78;;;8.31;48.14
10992;BME280;5549;47.028;15.514;2023-02-21T05:41:23;96529.06;;;8.32;48.36
10992;BME280;5549;47.028;15.514;2023-02-21T05:43:50;96534.03;;;8.24;48.71
10992;BME280;5549;47.028;15.514;2023-02-21T05:46:23;96537.72;;;8.22;48.67
10992;BME280;5549;47.028;15.514;2023-02-21T05:48:51;96535.56;;;8.16;48.90
10992;BME280;5549;47.028;15.514;2023-02-21T05:51:22;96541.50;;;8.18;49.25
10992;BME280;5549;47.028;15.514;2023-02-21T05:53:51;96533.66;;;8.18;49.01
10992;BME280;5549;47.028;15.514;2023-02-21T05:56:22;96534.84;;;8.14;48.32
10992;BME280;5549;47.028;15.514;2023-02-21T05:58:49;96534.84;;;8.14;48.22
10992;BME280;5549;47.028;15.514;2023-02-21T06:01:17;96539.00;;;8.16;48.63
10992;BME280;5549;47.028;15.514;2023-02-21T06:03:45;96542.69;;;8.14;48.67
10992;BME280;5549;47.028;15.514;2023-02-21T06:06:14;96540.75;;;8.04;48.63
10992;BME280;5549;47.028;15.514;2023-02-21T06:08:44;96547.66;;;8.05;48.90
10992;BME280;5549;47.028;15.514;2023-02-21T06:11:12;96541.25;;;8.10;48.72
10992;BME280;5549;47.028;15.514;2023-02-21T06:13:44;96551.91;;;7.95;48.35
10992;BME280;5549;47.028;15.514;2023-02-21T06:16:12;96538.25;;;8.03;48.74
10992;BME280;5549;47.028;15.514;2023-02-21T06:18:40;96552.88;;;8.05;48.97
10992;BME280;5549;47.028;15.514;2023-02-21T06:21:07;96543.34;;;7.93;48.73
10992;BME280;5549;47.028;15.514;2023-02-21T06:23:37;96544.31;;;8.03;47.69
10992;BME280;5549;47.028;15.514;2023-02-21T06:26:07;96544.53;;;8.00;48.27
10992;BME280;5549;47.028;15.514;2023-02-21T06:28:35;96550.75;;;8.11;48.38
10992;BME280;5549;47.028;15.514;2023-02-21T06:31:06;96561.97;;;8.24;48.68
10992;BME280;5549;47.028;15.514;2023-02-21T06:33:34;96555.69;;;8.26;48.62
10992;BME280;5549;47.028;15.514;2023-02-21T06:36:06;96558.31;;;8.26;46.63
10992;BME280;5549;47.028;15.514;2023-02-21T06:38:36;96562.53;;;8.40;46.08
10992;BME280;5549;47.028;15.514;2023-02-21T06:41:06;96554.94;;;8.48;45.76
10992;BME280;5549;47.028;15.514;2023-02-21T06:43:36;96557.44;;;8.61;45.26
10992;BME280;5549;47.028;15.514;2023-02-21T06:46:07;96556.31;;;8.76;45.31
10992;BME280;5549;47.028;15.514;2023-02-21T06:48:37;96564.28;;;8.86;44.11
10992;BME280;5549;47.028;15.514;2023-02-21T06:51:06;96562.03;;;9.26;45.70
10992;BME280;5549;47.028;15.514;2023-02-21T06:53:36;96570.84;;;9.79;45.00
10992;BME280;5549;47.028;15.514;2023-02-21T06:56:06;96566.53;;;10.21;44.42
10992;BME280;5549;47.028;15.514;2023-02-21T06:58:34;96567.63;;;10.51;45.54
10992;BME280;5549;47.028;15.514;2023-02-21T07:01:04;96569.25;;;10.93;43.96
10992;BME280;5549;47.028;15.514;2023-02-21T07:03:33;96563.75;;;11.37;43.04
10992;BME280;5549;47.028;15.514;2023-02-21T07:06:03;96563.59;;;11.78;41.30
10992;BME280;5549;47.028;15.514;2023-02-21T07:08:31;96562.25;;;12.23;41.73
10992;BME280;5549;47.028;15.514;2023-02-21T07:11:01;96570.00;;;12.63;40.90
10992;BME280;5549;47.028;15.514;2023-02-21T07:13:28;96571.72;;;12.91;39.94
10992;BME280;5549;47.028;15.514;2023-02-21T07:15:56;96563.22;;;13.44;42.97
10992;BME280;5549;47.028;15.514;2023-02-21T07:18:23;96558.38;;;13.94;42.79
10992;BME280;5549;47.028;15.514;2023-02-21T07:20:52;96562.59;;;14.40;45.08
10992;BME280;5549;47.028;15.514;2023-02-21T07:23:20;96559.25;;;14.74;43.85
10992;BME280;5549;47.028;15.514;2023-02-21T07:25:48;96555.25;;;14.96;42.61
10992;BME280;5549;47.028;15.514;2023-02-21T07:28:16;96564.88;;;15.31;40.66
10992;BME280;5549;47.028;15.514;2023-02-21T07:30:44;96550.84;;;15.64;41.38
10992;BME280;5549;47.028;15.514;2023-02-21T07:33:14;96555.91;;;15.92;40.38
10992;BME280;5549;47.028;15.514;2023-02-21T07:35:44;96568.13;;;15.85;39.00
10992;BME280;5549;47.028;15.514;2023-02-21T07:38:21;96561.56;;;16.13;38.37
10992;BME280;5549;47.028;15.514;2023-02-21T07:40:49;96562.09;;;16.33;37.61
10992;BME280;5549;47.028;15.514;2023-02-21T07:43:17;96555.97;;;16.57;37.62
10992;BME280;5549;47.028;15.514;2023-02-21T07:45:44;96562.59;;;16.77;37.17
10992;BME280;5549;47.028;15.514;2023-02-21T07:48:12;96562.59;;;16.93;35.91
10992;BME280;5549;47.028;15.514;2023-02-21T07:50:40;96560.88;;;17.17;37.01
10992;BME280;5549;47.028;15.514;2023-02-21T07:53:11;96559.19;;;17.40;37.33
10992;BME280;5549;47.028;15.514;2023-02-21T07:55:43;96564.91;;;17.60;36.69
10992;BME280;5549;47.028;15.514;2023-02-21T07:58:13;96559.78;;;17.67;35.38
10992;BME280;5549;47.028;15.514;2023-02-21T08:00:41;96554.47;;;17.67;36.58
10992;BME280;5549;47.028;15.514;2023-02-21T08:03:12;96566.84;;;17.19;37.16
10992;BME280;5549;47.028;15.514;2023-02-21T08:05:42;96560.66;;;17.43;36.32
10992;BME280;5549;47.028;15.514;2023-02-21T08:08:14;96556.66;;;17.47;34.17
10992;BME280;5549;47.028;15.514;2023-02-21T08:10:46;96564.69;;;17.22;34.11
10992;BME280;5549;47.028;15.514;2023-02-21T08:13:14;96560.84;;;17.25;33.02
10992;BME280;5549;47.028;15.514;2023-02-21T08:15:42;96562.22;;;17.13;33.06
10992;BME280;5549;47.028;15.514;2023-02-21T08:18:15;96567.91;;;16.69;32.73
10992;BME280;5549;47.028;15.514;2023-02-21T08:20:46;96563.88;;;17.14;32.54
10992;BME280;5549;47.028;15.514;2023-02-21T08:23:14;96565.34;;;17.24;31.04
10992;BME280;5549;47.028;15.514;2023-02-21T08:25:45;96558.94;;;16.86;30.90
10992;BME280;5549;47.028;15.514;2023-02-21T08:28:14;96562.94;;;16.82;31.72
10992;BME280;5549;47.028;15.514;2023-02-21T08:30:42;96570.84;;;17.15;31.46
10992;BME280;5549;47.028;15.514;2023-02-21T08:33:12;96569.06;;;17.62;31.79
10992;BME280;5549;47.028;15.514;2023-02-21T08:35:42;96562.38;;;17.75;30.72
10992;BME280;5549;47.028;15.514;2023-02-21T08:38:09;96576.16;;;18.09;32.67
10992;BME280;5549;47.028;15.514;2023-02-21T08:40:37;96576.47;;;17.83;31.00
10992;BME280;5549;47.028;15.514;2023-02-21T08:43:06;96572.38;;;18.26;32.22
10992;BME280;5549;47.028;15.514;2023-02-21T08:45:33;96575.41;;;18.46;32.60
10992;BME280;5549;47.028;15.514;2023-02-21T08:48:01;96574.41;;;18.70;32.50
10992;BME280;5549;47.028;15.514;2023-02-21T08:50:29;96571.16;;;18.83;32.31
10992;BME280;5549;47.028;15.514;2023-02-21T08:52:57;96563.47;;;19.03;31.69
10992;BME280;5549;47.028;15.514;2023-02-21T08:55:25;96568.66;;;19.19;32.20
10992;BME280;5549;47.028;15.514;2023-02-21T08:57:53;96574.44;;;19.08;32.24
10992;BME280;5549;47.028;15.514;2023-02-21T09:00:24;96571.06;;;18.91;33.16
10992;BME280;5549;47.028;15.514;2023-02-21T09:02:56;96570.28;;;19.05;33.15
10992;BME280;5549;47.028;15.514;2023-02-21T09:05:27;96574.84;;;18.97;33.18
10992;BME280;5549;47.028;15.514;2023-02-21T09:07:58;96576.25;;;18.70;31.95
10992;BME280;5549;47.028;15.514;2023-02-21T09:10:27;96578.66;;;18.56;31.34
10992;BME280;5549;47.028;15.514;2023-02-21T09:12:55;96569.19;;;18.54;31.38
10992;BME280;5549;47.028;15.514;2023-02-21T09:15:24;96579.44;;;18.65;31.65
10992;BME280;5549;47.028;15.514;2023-02-21T09:17:55;96582.47;;;18.62;31.72
10992;BME280;5549;47.028;15.514;2023-02-21T09:20:25;96575.78;;;19.04;35.89
10992;BME280;5549;47.028;15.514;2023-02-21T09:22:52;96581.28;;;19.54;34.71
10992;BME280;5549;47.028;15.514;2023-02-21T09:25:23;96579.44;;;19.84;32.79
10992;BME280;5549;47.028;15.514;2023-02-21T09:27:51;96580.25;;;19.85;31.78
10992;BME280;5549;47.028;15.514;2023-02-21T09:30:21;96576.47;;;19.94;31.92
10992;BME280;5549;47.028;15.514;2023-02-21T09:32:55;96578.00;;;20.03;31.74
10992;BME280;5549;47.028;15.514;2023-02-21T09:35:25;96586.91;;;20.10;31.25
10992;BME280;5549;47.028;15.514;2023-02-21T09:37:58;96579.94;;;20.09;31.05
10992;BME280;5549;47.028;15.514;2023-02-21T09:40:35;96582.81;;;19.93;29.45
10992;BME280;5549;47.028;15.514;2023-02-21T09:43:13;96584.00;;;19.91;28.21
10992;BME280;5549;47.028;15.514;2023-02-21T09:45:45;96586.59;;;19.40;29.27
10992;BME280;5549;47.028;15.514;2023-02-21T09:48:19;96582.13;;;19.70;29.41
10992;BME280;5549;47.028;15.514;2023-02-21T09:50:54;96586.84;;;19.30;29.12
10992;BME280;5549;47.028;15.514;2023-02-21T09:53:28;96585.88;;;19.75;28.77
10992;BME280;5549;47.028;15.514;2023-02-21T09:55:59;96580.19;;;20.14;29.60
10992;BME280;5549;47.028;15.514;2023-02-21T09:58:34;96586.28;;;20.08;28.90
10992;BME280;5549;47.028;15.514;2023-02-21T10:01:08;96588.81;;;20.16;28.46
10992;BME280;5549;47.028;15.514;2023-02-21T10:03:45;96578.88;;;20.25;28.44
10992;BME280;5549;47.028;15.514;2023-02-21T10:06:29;96579.13;;;20.30;28.17
10992;BME280;5549;47.028;15.514;2023-02-21T10:09:04;96586.41;;;20.58;28.03
10992;BME280;5549;47.028;15.514;2023-02-21T10:11:52;96579.88;;;20.60;27.51
10992;BME280;5549;47.028;15.514;2023-02-21T10:14:32;96586.69;;;20.84;27.80
10992;BME280;5549;47.028;15.514;2023-02-21T10:17:12;96584.06;;;20.91;26.11
10992;BME280;5549;47.028;15.514;2023-02-21T10:19:50;96583.06;;;20.92;26.01
10992;BME280;5549;47.028;15.514;2023-02-21T10:22:22;96586.75;;;20.91;26.21
10992;BME280;5549;47.028;15.514;2023-02-21T10:24:52;96579.88;;;21.03;25.37
10992;BME280;5549;47.028;15.514;2023-02-21T10:27:25;96587.72;;;21.11;24.69
10992;BME280;5549;47.028;15.514;2023-02-21T10:29:56;96588.56;;;21.11;23.42
10992;BME280;5549;47.028;15.514;2023-02-21T10:32:27;96584.22;;;20.83;23.39
10992;BME280;5549;47.028;15.514;2023-02-21T10:34:56;96583.59;;;21.08;24.02
10992;BME280;5549;47.028;15.514;2023-02-21T10:37:32;96582.19;;;20.85;23.71
10992;BME280;5549;47.028;15.514;2023-02-21T10:40:25;96583.69;;;20.94;23.48
10992;BME280;5549;47.028;15.514;2023-02-21T10:43:03;96579.88;;;21.03;22.74
10992;BME280;5549;47.028;15.514;2023-02-21T10:45:37;96578.84;;;21.04;23.34
10992;BME280;5549;47.028;15.514;2023-02-21T10:48:09;96574.53;;;21.03;23.64
10992;BME280;5549;47.028;15.514;2023-02-21T10:50:50;96568.88;;;20.91;23.42
10992;BME280;5549;47.028;15.514;2023-02-21T10:53:27;96570.25;;;21.08;23.56
10992;BME280;5549;47.028;15.514;2023-02-21T10:56:24;96570.28;;;21.15;23.74
10992;BME280;5549;47.028;15.514;2023-02-21T10:58:56;96572.00;;;20.95;23.56
10992;BME280;5549;47.028;15.514;2023-02-21T11:01:46;96569.47;;;20.87;23.84
10992;BME280;5549;47.028;15.514;2023-02-21T11:04:29;96560.09;;;20.97;24.07
10992;BME280;5549;47.028;15.514;2023-02-21T11:07:04;96564.44;;;21.26;23.70
10992;BME280;5549;47.028;15.514;2023-02-21T11:09:40;96552.13;;;21.25;23.01
10992;BME280;5549;47.028;15.514;2023-02-21T11:12:23;96550.06;;;21.27;22.34
10992;BME280;5549;47.028;15.514;2023-02-21T11:15:16;96547.97;;;20.95;22.56
10992;BME280;5549;47.028;15.514;2023-02-21T11:17:44;96551.72;;;20.79;23.63
10992;BME280;5549;47.028;15.514;2023-02-21T11:20:19;96546.16;;;21.02;23.60
10992;BME280;5549;47.028;15.514;2023-02-21T11:22:52;96539.03;;;21.09;24.27
10992;BME280;5549;47.028;15.514;2023-02-21T11:25:23;96528.13;;;21.04;23.20
10992;BME280;5549;47.028;15.514;2023-02-21T11:28:04;96524.63;;;21.31;22.53
10992;BME280;5549;47.028;15.514;2023-02-21T11:30:36;96525.88;;;21.35;21.79
10992;BME280;5549;47.028;15.514;2023-02-21T11:33:05;96530.03;;;21.44;22.09
10992;BME280;5549;47.028;15.514;2023-02-21T11:35:41;96524.31;;;21.54;20.25
10992;BME280;5549;47.028;15.514;2023-02-21T11:38:36;96523.59;;;21.73;21.72
10992;BME280;5549;47.028;15.514;2023-02-21T11:41:21;96518.09;;;21.88;22.40
10992;BME280;5549;47.028;15.514;2023-02-21T11:43:53;96514.41;;;21.96;22.19
10992;BME280;5549;47.028;15.514;2023-02-21T11:46:36;96511.81;;;22.16;21.84
10992;BME280;5549;47.028;15.514;2023-02-21T11:49:16;96509.75;;;22.04;22.14
10992;BME280;5549;47.028;15.514;2023-02-21T11:51:55;96508.53;;;22.14;21.84
10992;BME280;5549;47.028;15.514;2023-02-21T11:54:28;96510.00;;;22.23;22.20
10992;BME280;5549;47.028;15.514;2023-02-21T11:57:03;96510.59;;;22.25;23.15
10992;BME280;5549;47.028;15.514;2023-02-21T11:59:43;96505.72;;;22.55;22.86
10992;BME280;5549;47.028;15.514;2023-02-21T12:02:40;96499.56;;;23.00;22.70
10992;BME280;5549;47.028;15.514;2023-02-21T12:05:46;96490.28;;;23.10;21.54
10992;BME280;5549;47.028;15.514;2023-02-21T12:08:38;96497.53;;;22.89;21.52
10992;BME280;5549;47.028;15.514;2023-02-21T12:11:40;96491.31;;;23.09;20.61
10992;BME280;5549;47.028;15.514;2023-02-21T12:14:30;96482.41;;;23.28;20.76
10992;BME280;5549;47.028;15.514;2023-02-21T12:17:14;96478.47;;;23.30;20.34
10992;BME280;5549;47.028;15.514;2023-02-21T12:20:15;96480.16;;;23.18;20.85
10992;BME280;5549;47.028;15.514;2023-02-21T12:23:10;96471.94;;;23.13;20.65
10992;BME280;5549;47.028;15.514;2023-02-21T12:25:56;96471.75;;;22.95;21.14
10992;BME280;5549;47.028;15.514;2023-02-21T12:28:42;96468.06;;;22.83;20.72
10992;BME280;5549;47.028;15.514;2023-02-21T12:31:32;96461.66;;;22.70;20.20
10992;BME280;5549;47.028;15.514;2023-02-21T12:34:17;96464.56;;;22.62;20.52
10992;BME280;5549;47.028;15.514;2023-02-21T12:37:07;96458.38;;;22.62;20.63
10992;BME280;5549;47.028;15.514;2023-02-21T12:39:59;96453.44;;;22.85;19.85
10992;BME280;5549;47.028;15.514;2023-02-21T12:42:48;96443.94;;;22.96;19.31
10992;BME280;5549;47.028;15.514;2023-02-21T12:45:44;96436.50;;;23.04;18.90
10992;BME280;5549;47.028;15.514;2023-02-21T12:48:20;96438.22;;;22.86;18.92
10992;BME280;5549;47.028;15.514;2023-02-21T12:50:54;96441.50;;;22.75;18.54
10992;BME280;5549;47.028;15.514;2023-02-21T12:53:32;96438.19;;;22.72;19.28
10992;BME280;5549;47.028;15.514;2023-02-21T12:56:08;96429.31;;;22.52;18.50
10992;BME280;5549;47.028;15.514;2023-02-21T12:58:42;96432.00;;;22.52;18.80
10992;BME280;5549;47.028;15.514;2023-02-21T13:01:19;96433.25;;;22.43;18.60
10992;BME280;5549;47.028;15.514;2023-02-21T13:03:56;96425.00;;;22.25;18.42
10992;BME280;5549;47.028;15.514;2023-02-21T13:06:33;96421.09;;;22.34;18.20
10992;BME280;5549;47.028;15.514;2023-02-21T13:09:18;96420.47;;;22.52;19.08
10992;BME280;5549;47.028;15.514;2023-02-21T13:11:56;96413.28;;;22.52;19.44
10992;BME280;5549;47.028;15.514;2023-02-21T13:14:34;96412.66;;;22.30;19.59
10992;BME280;5549;47.028;15.514;2023-02-21T13:17:09;96412.25;;;22.14;19.91
10992;BME280;5549;47.028;15.514;2023-02-21T13:19:44;96409.78;;;22.12;19.77
10992;BME280;5549;47.028;15.514;2023-02-21T13:26:21;96404.81;;;22.02;19.66
10992;BME280;5549;47.028;15.514;2023-02-21T13:28:53;96404.84;;;22.16;19.94
10992;BME280;5549;47.028;15.514;2023-02-21T13:31:24;96397.19;;;21.99;19.84
10992;BME280;5549;47.028;15.514;2023-02-21T13:33:59;96398.66;;;22.08;20.61
10992;BME280;5549;47.028;15.514;2023-02-21T13:36:38;96396.00;;;22.28;19.98
10992;BME280;5549;47.028;15.514;2023-02-21T13:39:12;96391.06;;;22.19;20.02
10992;BME280;5549;47.028;15.514;2023-02-21T13:41:44;96389.63;;;22.23;19.79
10992;BME280;5549;47.028;15.514;2023-02-21T13:44:18;96392.28;;;22.09;19.65
10992;BME280;5549;47.028;15.514;2023-02-21T13:47:12;96398.63;;;21.95;20.14
10992;BME280;5549;47.028;15.514;2023-02-21T13:49:48;96394.75;;;22.18;19.57
10992;BME280;5549;47.028;15.514;2023-02-21T13:52:51;96392.66;;;21.93;19.04
10992;BME280;5549;47.028;15.514;2023-02-21T13:55:27;96387.34;;;22.13;19.27
10992;BME280;5549;47.028;15.514;2023-02-21T13:58:32;96382.81;;;22.27;18.34
10992;BME280;5549;47.028;15.514;2023-02-21T14:01:22;96379.72;;;22.23;18.48
10992;BME280;5549;47.028;15.514;2023-02-21T14:05:06;96379.13;;;22.28;18.54
10992;BME280;5549;47.028;15.514;2023-02-21T14:07:57;96375.22;;;22.24;18.96
10992;BME280;5549;47.028;15.514;2023-02-21T14:10:40;96381.38;;;22.04;18.75